Stockdale, Pennsylvania
Current Conditions -  °F | °C
As of 3:53 PM on Saturday 20 Dec 2014 (Local Time) from KAGC Reporting Station
Clear Clear  
Wind Chill: 31°   Ceiling: Unl
Heat Index: 31°   Visibility: 10mi
Dew Point: 16°   Wind: 3mph
Humidity: 54%   Direction: 280°W
Pressure: 30.21"   Gusts: NA
Location:  40.08°N, 79.85°W
Report Text: KAGC 202053Z 28003KT 10SM CLR M01/M09 A3021 RMK AO2 SLP249 T10061089 55000
Loading
Personal Weather Stations






























Interactive Weather Map New forecast layout! Learn more

10-Day Weather Forecast

Advertisements
Track Severe Weather on mobile